createdAt,value
2023-01-17T00:02:10.738Z,97618.42
2023-01-17T00:04:57.905Z,97614.30
2023-01-17T00:07:44.295Z,97608.05
2023-01-17T00:10:15.134Z,97602.64
2023-01-17T00:12:47.802Z,97604.56
2023-01-17T00:15:19.171Z,97601.47
2023-01-17T00:17:47.515Z,97600.93
2023-01-17T00:20:36.474Z,97605.48
2023-01-17T00:23:25.543Z,97601.26
2023-01-17T00:26:02.645Z,97603.45
2023-01-17T00:28:32.513Z,97598.56
2023-01-17T00:31:00.560Z,97595.59
2023-01-17T00:33:28.980Z,97590.48
2023-01-17T00:35:58.271Z,97587.67
2023-01-17T00:38:28.092Z,97579.50
2023-01-17T00:41:02.171Z,97572.08
2023-01-17T00:43:50.059Z,97571.09
2023-01-17T00:46:37.301Z,97574.25
2023-01-17T00:49:24.501Z,97572.48
2023-01-17T00:52:11.215Z,97572.30
2023-01-17T00:54:58.219Z,97566.48
2023-01-17T00:57:44.717Z,97559.42
2023-01-17T01:00:33.489Z,97557.70
2023-01-17T01:03:25.518Z,97557.27
2023-01-17T01:06:12.502Z,97558.65
2023-01-17T01:08:59.351Z,97551.89
2023-01-17T01:11:46.518Z,97547.17
2023-01-17T01:14:33.394Z,97535.59
2023-01-17T01:17:20.193Z,97511.79
2023-01-17T01:20:07.017Z,97505.23
2023-01-17T01:22:54.008Z,97491.17
2023-01-17T01:25:40.588Z,97494.49
2023-01-17T01:28:30.622Z,97505.05
2023-01-17T01:31:18.896Z,97513.10
2023-01-17T01:33:47.694Z,97515.76
2023-01-17T01:36:16.028Z,97515.75
2023-01-17T01:38:45.153Z,97508.05
2023-01-17T01:41:13.497Z,97506.05
2023-01-17T01:43:46.340Z,97506.73
2023-01-17T01:46:19.224Z,97499.33
2023-01-17T01:48:51.939Z,97493.83
2023-01-17T01:51:21.792Z,97489.74
2023-01-17T01:53:53.885Z,97482.74
2023-01-17T01:56:23.387Z,97485.23
2023-01-17T01:58:53.229Z,97487.94
2023-01-17T02:01:21.548Z,97481.86
2023-01-17T02:03:50.774Z,97483.98
2023-01-17T02:06:29.130Z,97474.98
2023-01-17T02:09:00.545Z,97469.50
2023-01-17T02:11:28.827Z,97462.80
2023-01-17T02:13:57.078Z,97458.00
2023-01-17T02:16:43.656Z,97454.17
2023-01-17T02:19:34.605Z,97460.94
2023-01-17T02:22:29.311Z,97461.68
2023-01-17T02:25:04.308Z,97453.95
2023-01-17T02:27:47.912Z,97454.06
2023-01-17T02:30:34.569Z,97451.02
2023-01-17T02:33:27.008Z,97443.25
2023-01-17T02:36:10.518Z,97433.38
2023-01-17T02:38:50.409Z,97427.96
2023-01-17T02:41:22.451Z,97416.77
2023-01-17T02:43:52.653Z,97409.02
2023-01-17T02:46:21.179Z,97408.79
2023-01-17T02:48:51.208Z,97402.22
2023-01-17T02:51:35.981Z,97406.95
2023-01-17T02:54:15.969Z,97405.73
2023-01-17T02:56:56.504Z,97410.15
2023-01-17T02:59:38.566Z,97415.77
2023-01-17T03:02:20.828Z,97415.19
2023-01-17T03:04:54.886Z,97420.08
2023-01-17T03:07:26.559Z,97416.71
2023-01-17T03:09:59.314Z,97405.55
2023-01-17T03:12:27.688Z,97409.17
2023-01-17T03:14:56.038Z,97412.28
2023-01-17T03:17:28.292Z,97409.85
2023-01-17T03:19:56.683Z,97409.27
2023-01-17T03:22:25.186Z,97409.27
2023-01-17T03:24:53.583Z,97407.81
2023-01-17T03:27:21.873Z,97403.33
2023-01-17T03:29:50.262Z,97404.69
2023-01-17T03:32:18.538Z,97410.09
2023-01-17T03:34:46.878Z,97402.88
2023-01-17T03:37:15.532Z,97395.83
2023-01-17T03:39:44.083Z,97392.14
2023-01-17T03:42:12.887Z,97390.29
2023-01-17T03:44:43.524Z,97390.14
2023-01-17T03:47:12.229Z,97391.54
2023-01-17T03:49:41.346Z,97390.98
2023-01-17T03:52:09.745Z,97392.31
2023-01-17T03:54:38.121Z,97393.42
2023-01-17T03:57:07.990Z,97390.70
2023-01-17T03:59:36.233Z,97394.77
2023-01-17T04:02:04.605Z,97398.06
2023-01-17T04:04:33.351Z,97390.27
2023-01-17T04:07:01.590Z,97402.98
2023-01-17T04:09:33.199Z,97395.91
2023-01-17T04:12:02.164Z,97393.98
2023-01-17T04:14:30.514Z,97391.97
2023-01-17T04:16:59.550Z,97380.85
2023-01-17T04:19:28.136Z,97381.94
2023-01-17T04:21:56.418Z,97386.26
2023-01-17T04:24:24.728Z,97383.02
2023-01-17T04:26:53.005Z,97380.27
2023-01-17T04:29:21.256Z,97378.13
2023-01-17T04:31:49.679Z,97369.90
2023-01-17T04:34:18.237Z,97370.52
2023-01-17T04:36:46.954Z,97370.00
2023-01-17T04:39:15.246Z,97373.54
2023-01-17T04:41:43.648Z,97368.60
2023-01-17T04:44:12.231Z,97365.85
2023-01-17T04:46:40.813Z,97371.73
2023-01-17T04:49:09.244Z,97371.29
2023-01-17T04:51:37.521Z,97374.20
2023-01-17T04:54:05.986Z,97376.95
2023-01-17T04:56:34.273Z,97375.17
2023-01-17T04:59:02.571Z,97379.14
2023-01-17T05:01:31.015Z,97380.50
2023-01-17T05:03:59.472Z,97378.35
2023-01-17T05:06:27.926Z,97383.70
2023-01-17T05:08:56.204Z,97384.95
2023-01-17T05:11:24.565Z,97386.39
2023-01-17T05:13:52.974Z,97390.34
2023-01-17T05:16:21.233Z,97391.20
2023-01-17T05:18:52.185Z,97389.38
2023-01-17T05:21:21.807Z,97387.66
2023-01-17T05:23:50.297Z,97390.13
2023-01-17T05:26:18.472Z,97392.23
2023-01-17T05:28:46.815Z,97394.29
2023-01-17T05:31:15.167Z,97398.68
2023-01-17T05:33:43.653Z,97395.77
2023-01-17T05:36:12.089Z,97403.90
2023-01-17T05:38:40.397Z,97408.27
2023-01-17T05:41:08.666Z,97404.11
2023-01-17T05:43:36.930Z,97404.52
2023-01-17T05:46:05.685Z,97400.02
2023-01-17T05:48:33.974Z,97398.98
2023-01-17T05:51:02.296Z,97401.14
2023-01-17T05:53:30.534Z,97406.58
2023-01-17T05:55:58.807Z,97404.45
2023-01-17T05:58:27.032Z,97408.27
2023-01-17T06:00:56.031Z,97414.77
2023-01-17T06:03:24.730Z,97415.72
2023-01-17T06:05:53.488Z,97421.32
2023-01-17T06:08:22.816Z,97419.93
2023-01-17T06:10:51.592Z,97414.78
2023-01-17T06:13:21.311Z,97415.38
2023-01-17T06:15:50.063Z,97416.42
2023-01-17T06:18:18.892Z,97420.49
2023-01-17T06:20:53.674Z,97419.46
2023-01-17T06:23:23.594Z,97423.35
2023-01-17T06:25:52.552Z,97423.44
2023-01-17T06:28:22.639Z,97425.42
2023-01-17T06:30:50.977Z,97430.10
2023-01-17T06:33:19.292Z,97425.44
2023-01-17T06:35:52.869Z,97433.75
2023-01-17T06:38:21.673Z,97435.20
2023-01-17T06:40:50.166Z,97430.86
2023-01-17T06:43:18.482Z,97435.85
2023-01-17T06:45:46.705Z,97430.71
2023-01-17T06:48:15.363Z,97428.33
2023-01-17T06:50:43.928Z,97429.84
2023-01-17T06:53:12.338Z,97431.30
2023-01-17T06:55:41.903Z,97436.48
2023-01-17T06:58:10.682Z,97439.67
2023-01-17T07:00:40.876Z,97439.48
2023-01-17T07:03:16.678Z,97437.77
2023-01-17T07:05:45.055Z,97443.38
2023-01-17T07:08:13.532Z,97447.93
2023-01-17T07:10:43.720Z,97443.83
2023-01-17T07:13:12.434Z,97455.70
2023-01-17T07:15:41.051Z,97450.16
2023-01-17T07:18:09.347Z,97455.52
2023-01-17T07:20:38.103Z,97458.67
2023-01-17T07:23:06.401Z,97460.45
2023-01-17T07:25:34.656Z,97462.44
2023-01-17T07:28:03.102Z,97461.13
2023-01-17T07:30:31.423Z,97464.55
2023-01-17T07:33:00.631Z,97468.23
2023-01-17T07:35:29.137Z,97468.80
2023-01-17T07:37:57.488Z,97469.95
2023-01-17T07:40:26.579Z,97472.70
2023-01-17T07:43:01.242Z,97477.00
2023-01-17T07:45:29.562Z,97479.04
2023-01-17T07:47:58.021Z,97476.43
2023-01-17T07:50:26.424Z,97481.87
2023-01-17T07:52:55.705Z,97476.16
2023-01-17T07:55:24.161Z,97482.07
2023-01-17T07:57:52.827Z,97482.21
2023-01-17T08:00:22.620Z,97482.19
2023-01-17T08:02:54.914Z,97484.92
2023-01-17T08:05:23.830Z,97489.15
2023-01-17T08:07:52.487Z,97492.04
2023-01-17T08:10:21.936Z,97496.39
2023-01-17T08:12:50.694Z,97496.89
2023-01-17T08:15:19.313Z,97501.22
2023-01-17T08:17:48.660Z,97502.25
2023-01-17T08:20:17.268Z,97504.38
2023-01-17T08:22:45.707Z,97504.83
2023-01-17T08:25:14.403Z,97509.26
2023-01-17T08:27:42.799Z,97508.61
2023-01-17T08:30:12.923Z,97508.05
2023-01-17T08:32:41.320Z,97514.09
2023-01-17T08:35:10.421Z,97518.69
2023-01-17T08:37:39.336Z,97517.19
2023-01-17T08:40:10.430Z,97521.73
2023-01-17T08:42:40.378Z,97521.61
2023-01-17T08:45:10.716Z,97529.91
2023-01-17T08:47:39.486Z,97528.65
2023-01-17T08:50:09.404Z,97535.83
2023-01-17T08:52:37.704Z,97536.95
2023-01-17T08:55:09.374Z,97536.55
2023-01-17T08:57:37.737Z,97540.11
2023-01-17T09:00:09.230Z,97547.74
2023-01-17T09:02:37.817Z,97548.75
2023-01-17T09:05:08.021Z,97560.66
2023-01-17T09:07:36.583Z,97558.91
2023-01-17T09:10:06.193Z,97560.80
2023-01-17T09:12:36.176Z,97567.89
2023-01-17T09:15:06.544Z,97569.65
2023-01-17T09:17:35.169Z,97579.45
2023-01-17T09:20:04.209Z,97580.92
2023-01-17T09:22:33.012Z,97581.83
2023-01-17T09:25:12.774Z,97586.25
2023-01-17T09:27:45.441Z,97586.06
2023-01-17T09:30:15.666Z,97590.80
2023-01-17T09:32:44.262Z,97592.17
2023-01-17T09:35:12.976Z,97595.05
2023-01-17T09:37:41.318Z,97596.89
2023-01-17T09:40:18.013Z,97593.20
2023-01-17T09:42:49.516Z,97598.39
2023-01-17T09:45:20.241Z,97597.32
2023-01-17T09:47:51.902Z,97603.27
2023-01-17T09:50:29.247Z,97602.23
2023-01-17T09:53:02.638Z,97596.64
2023-01-17T09:55:39.625Z,97595.47
2023-01-17T09:58:14.424Z,97593.60
2023-01-17T10:00:53.225Z,97597.06
2023-01-17T10:03:32.725Z,97597.98
2023-01-17T10:06:13.669Z,97600.48
2023-01-17T10:09:03.335Z,97604.70
2023-01-17T10:11:46.582Z,97599.36
2023-01-17T10:14:41.986Z,97597.71
2023-01-17T10:17:21.349Z,97598.54
2023-01-17T10:20:03.586Z,97596.40
2023-01-17T10:22:45.685Z,97599.58
2023-01-17T10:25:32.453Z,97610.41
2023-01-17T10:28:09.720Z,97605.54
2023-01-17T10:30:42.683Z,97615.77
2023-01-17T10:33:17.602Z,97612.98
2023-01-17T10:35:56.144Z,97615.39
2023-01-17T10:38:30.349Z,97625.92
2023-01-17T10:41:02.304Z,97622.27
2023-01-17T10:43:43.464Z,97616.39
2023-01-17T10:46:18.584Z,97625.02
2023-01-17T10:48:51.586Z,97620.83
2023-01-17T10:51:43.163Z,97618.54
2023-01-17T10:54:28.897Z,97618.76
2023-01-17T10:56:58.599Z,97619.48
2023-01-17T10:59:32.912Z,97622.23
2023-01-17T11:02:06.137Z,97627.64
2023-01-17T11:04:37.236Z,97622.03
2023-01-17T11:07:15.175Z,97620.77
2023-01-17T11:09:45.258Z,97618.98
2023-01-17T11:12:19.703Z,97626.30
2023-01-17T11:15:06.232Z,97630.57
2023-01-17T11:17:37.217Z,97631.40
2023-01-17T11:20:19.278Z,97634.26
2023-01-17T11:23:04.415Z,97632.22
2023-01-17T11:25:34.277Z,97634.59
2023-01-17T11:28:05.674Z,97629.05
2023-01-17T11:30:34.371Z,97627.88
2023-01-17T11:33:06.328Z,97626.34
2023-01-17T11:35:36.897Z,97626.28
2023-01-17T11:38:11.548Z,97626.75
2023-01-17T11:40:41.936Z,97623.10
2023-01-17T11:43:21.691Z,97621.06
2023-01-17T11:46:06.050Z,97618.70
2023-01-17T11:48:38.890Z,97622.34
2023-01-17T11:51:16.287Z,97621.00
2023-01-17T11:53:47.654Z,97617.09
2023-01-17T11:56:26.619Z,97616.66
2023-01-17T11:59:12.069Z,97621.61
2023-01-17T12:01:52.878Z,97628.48
2023-01-17T12:04:26.983Z,97633.56
2023-01-17T12:07:21.369Z,97623.69
2023-01-17T12:10:00.177Z,97630.02
2023-01-17T12:13:02.459Z,97625.95
2023-01-17T12:15:44.888Z,97630.52
2023-01-17T12:18:30.682Z,97635.86
2023-01-17T12:21:11.761Z,97639.19
2023-01-17T12:24:00.169Z,97642.00
2023-01-17T12:26:37.640Z,97647.11
2023-01-17T12:29:36.550Z,97647.13
2023-01-17T12:32:39.971Z,97648.86
2023-01-17T12:35:12.477Z,97648.70
2023-01-17T12:37:43.777Z,97643.48
2023-01-17T12:40:22.794Z,97638.47
2023-01-17T12:42:56.928Z,97636.61
2023-01-17T12:45:31.525Z,97637.73
2023-01-17T12:48:05.059Z,97641.83
2023-01-17T12:50:40.021Z,97639.98
2023-01-17T12:53:19.136Z,97651.61
2023-01-17T12:55:56.629Z,97640.37
2023-01-17T12:58:28.683Z,97640.05
2023-01-17T13:01:02.378Z,97640.52
2023-01-17T13:03:40.562Z,97644.66
2023-01-17T13:06:19.990Z,97649.95
2023-01-17T13:08:54.211Z,97664.41
2023-01-17T13:11:28.058Z,97666.89
2023-01-17T13:13:59.175Z,97672.83
2023-01-17T13:16:33.498Z,97672.60
2023-01-17T13:19:11.523Z,97677.98
2023-01-17T13:21:40.981Z,97680.19
2023-01-17T13:24:35.049Z,97682.33
2023-01-17T13:27:23.329Z,97687.42
2023-01-17T13:30:30.783Z,97693.56
2023-01-17T13:33:28.446Z,97697.00
2023-01-17T13:36:14.274Z,97699.92
2023-01-17T13:38:57.841Z,97702.38
2023-01-17T13:41:41.988Z,97707.73
2023-01-17T13:44:21.399Z,97716.63
2023-01-17T13:47:03.662Z,97716.95
2023-01-17T13:49:47.752Z,97726.24
2023-01-17T13:52:33.196Z,97741.94
2023-01-17T13:55:04.060Z,97740.45
2023-01-17T13:57:41.049Z,97743.61
2023-01-17T14:00:57.722Z,97749.51
2023-01-17T14:04:04.317Z,97752.23
2023-01-17T14:06:40.375Z,97757.39
2023-01-17T14:09:19.079Z,97765.08
2023-01-17T14:11:58.136Z,97769.16
2023-01-17T14:14:51.558Z,97769.87
2023-01-17T14:17:55.191Z,97781.42
2023-01-17T14:20:51.476Z,97785.20
2023-01-17T14:23:46.994Z,97789.48
2023-01-17T14:26:44.740Z,97786.64
2023-01-17T14:29:50.106Z,97792.14
2023-01-17T14:32:20.982Z,97802.74
2023-01-17T14:34:51.610Z,97802.99
2023-01-17T14:37:28.886Z,97813.50
2023-01-17T14:39:57.545Z,97809.08
2023-01-17T14:42:29.321Z,97814.77
2023-01-17T14:45:01.675Z,97823.56
2023-01-17T14:47:33.233Z,97825.73
2023-01-17T14:50:18.781Z,97827.84
2023-01-17T14:52:47.428Z,97834.55
2023-01-17T14:55:18.829Z,97837.45
2023-01-17T14:57:55.320Z,97842.27
2023-01-17T15:00:28.442Z,97838.80
2023-01-17T15:02:58.723Z,97843.27
2023-01-17T15:05:29.001Z,97846.63
2023-01-17T15:07:59.089Z,97851.52
2023-01-17T15:10:30.310Z,97862.12
2023-01-17T15:13:08.572Z,97861.81
2023-01-17T15:15:38.998Z,97868.97
2023-01-17T15:18:26.348Z,97876.63
2023-01-17T15:20:58.815Z,97878.22
2023-01-17T15:23:32.664Z,97882.25
2023-01-17T15:26:02.857Z,97887.05
2023-01-17T15:28:32.565Z,97888.24
2023-01-17T15:31:13.059Z,97890.16
2023-01-17T15:33:44.247Z,97898.96
2023-01-17T15:36:22.803Z,97902.80
2023-01-17T15:38:56.902Z,97906.50
2023-01-17T15:41:26.619Z,97909.20
2023-01-17T15:43:57.979Z,97913.91
2023-01-17T15:46:32.394Z,97921.42
2023-01-17T15:49:16.633Z,97922.39
2023-01-17T15:51:52.322Z,97932.00
2023-01-17T15:54:46.750Z,97935.93
2023-01-17T15:57:25.958Z,97936.64
2023-01-17T15:59:57.783Z,97940.93
2023-01-17T16:02:31.792Z,97939.19
2023-01-17T16:05:03.560Z,97947.13
2023-01-17T16:07:34.426Z,97949.55
2023-01-17T16:10:07.622Z,97952.23
2023-01-17T16:12:36.106Z,97957.55
2023-01-17T16:15:12.802Z,97956.18
2023-01-17T16:17:45.147Z,97959.08
2023-01-17T16:20:19.652Z,97961.44
2023-01-17T16:22:49.139Z,97964.52
2023-01-17T16:25:19.329Z,97957.55
2023-01-17T16:27:47.799Z,97961.84
2023-01-17T16:30:18.558Z,97970.06
2023-01-17T16:32:48.763Z,97970.05
2023-01-17T16:35:20.112Z,97970.35
2023-01-17T16:37:50.431Z,97968.09
2023-01-17T16:40:20.933Z,97971.00
2023-01-17T16:42:49.725Z,97974.18
2023-01-17T16:45:19.458Z,97976.53
2023-01-17T16:47:48.801Z,97975.36
2023-01-17T16:50:21.536Z,97979.71
2023-01-17T16:52:49.117Z,97977.47
2023-01-17T16:55:21.253Z,97982.23
2023-01-17T16:57:50.562Z,97980.33
2023-01-17T17:00:21.886Z,97981.20
2023-01-17T17:02:51.725Z,97979.50
2023-01-17T17:05:20.527Z,97981.48
2023-01-17T17:07:51.646Z,97984.11
2023-01-17T17:10:24.207Z,97982.66
2023-01-17T17:12:52.566Z,97985.39
2023-01-17T17:15:21.037Z,97985.49
2023-01-17T17:17:50.252Z,97982.34
2023-01-17T17:20:18.998Z,97981.42
2023-01-17T17:22:51.154Z,97982.19
2023-01-17T17:25:20.087Z,97979.23
2023-01-17T17:27:48.377Z,97980.25
2023-01-17T17:30:17.743Z,97980.63
2023-01-17T17:32:47.182Z,97981.83
2023-01-17T17:35:15.789Z,97982.06
2023-01-17T17:37:44.349Z,97982.88
2023-01-17T17:40:13.767Z,97987.40
2023-01-17T17:42:43.080Z,97989.98
2023-01-17T17:45:12.396Z,97996.61
2023-01-17T17:47:40.785Z,97997.75
2023-01-17T17:50:12.478Z,97998.60
2023-01-17T17:52:43.468Z,98002.52
2023-01-17T17:55:18.164Z,98010.14
2023-01-17T17:57:46.487Z,98018.10
2023-01-17T18:00:16.099Z,98016.40
2023-01-17T18:02:44.497Z,98023.10
2023-01-17T18:05:12.977Z,98024.22
2023-01-17T18:07:41.335Z,98021.30
2023-01-17T18:10:10.932Z,98017.73
2023-01-17T18:12:39.295Z,98011.72
2023-01-17T18:15:08.783Z,98006.25
2023-01-17T18:17:37.064Z,98004.98
2023-01-17T18:20:07.802Z,98007.53
2023-01-17T18:22:37.014Z,98005.09
2023-01-17T18:25:07.443Z,98004.26
2023-01-17T18:27:35.828Z,98012.45
2023-01-17T18:30:05.806Z,98015.23
2023-01-17T18:32:34.186Z,98015.39
2023-01-17T18:35:03.234Z,98018.55
2023-01-17T18:37:32.459Z,98023.11
2023-01-17T18:40:00.924Z,98023.35
2023-01-17T18:42:30.429Z,98033.36
2023-01-17T18:45:00.037Z,98042.02
2023-01-17T18:47:29.898Z,98045.23
2023-01-17T18:49:58.184Z,98051.80
2023-01-17T18:52:26.589Z,98056.21
2023-01-17T18:54:54.950Z,98060.05
2023-01-17T18:57:23.736Z,98067.86
2023-01-17T18:59:52.037Z,98069.51
2023-01-17T19:02:20.600Z,98074.20
2023-01-17T19:04:49.148Z,98078.56
2023-01-17T19:07:17.502Z,98081.36
2023-01-17T19:09:46.624Z,98079.15
2023-01-17T19:12:15.250Z,98081.88
2023-01-17T19:14:43.653Z,98082.20
2023-01-17T19:17:12.069Z,98085.70
2023-01-17T19:19:41.301Z,98087.19
2023-01-17T19:22:10.051Z,98087.88
2023-01-17T19:24:38.434Z,98086.74
2023-01-17T19:27:06.798Z,98093.31
2023-01-17T19:29:35.142Z,98093.61
2023-01-17T19:32:03.500Z,98099.11
2023-01-17T19:34:32.529Z,98095.96
2023-01-17T19:37:00.886Z,98094.95
2023-01-17T19:39:30.456Z,98093.55
2023-01-17T19:41:59.276Z,98094.05
2023-01-17T19:44:27.978Z,98096.11
2023-01-17T19:46:56.487Z,98096.10
2023-01-17T19:49:24.804Z,98094.95
2023-01-17T19:51:53.500Z,98086.73
2023-01-17T19:54:22.536Z,98087.91
2023-01-17T19:56:51.230Z,98086.20
2023-01-17T19:59:19.621Z,98085.93
2023-01-17T20:01:48.611Z,98090.33
2023-01-17T20:04:17.817Z,98085.96
2023-01-17T20:06:46.275Z,98088.46
2023-01-17T20:09:14.560Z,98086.49
2023-01-17T20:11:44.689Z,98089.45
2023-01-17T20:14:15.766Z,98093.04
2023-01-17T20:16:46.887Z,98090.48
2023-01-17T20:19:15.558Z,98093.61
2023-01-17T20:21:43.833Z,98096.16
2023-01-17T20:24:15.577Z,98100.41
2023-01-17T20:26:44.372Z,98102.73
2023-01-17T20:29:14.885Z,98107.65
2023-01-17T20:31:44.742Z,98111.98
2023-01-17T20:34:19.222Z,98110.34
2023-01-17T20:36:48.022Z,98117.39
2023-01-17T20:39:17.263Z,98121.06
2023-01-17T20:41:48.630Z,98119.36
2023-01-17T20:44:18.963Z,98120.95
2023-01-17T20:46:47.552Z,98118.61
2023-01-17T20:49:18.571Z,98125.84
2023-01-17T20:51:47.606Z,98126.48
2023-01-17T20:54:17.790Z,98136.94
2023-01-17T20:56:47.352Z,98133.81
2023-01-17T20:59:18.392Z,98142.32
2023-01-17T21:01:48.489Z,98135.17
2023-01-17T21:04:24.116Z,98141.98
2023-01-17T21:06:53.898Z,98141.83
2023-01-17T21:09:23.697Z,98149.10
2023-01-17T21:11:53.866Z,98158.02
2023-01-17T21:14:22.460Z,98151.09
2023-01-17T21:16:51.428Z,98146.65
2023-01-17T21:19:20.607Z,98150.62
2023-01-17T21:21:50.419Z,98150.00
2023-01-17T21:24:19.500Z,98157.56
2023-01-17T21:26:50.775Z,98161.30
2023-01-17T21:29:19.499Z,98162.01
2023-01-17T21:31:48.274Z,98159.91
2023-01-17T21:34:16.696Z,98165.03
2023-01-17T21:36:45.178Z,98169.25
2023-01-17T21:39:16.026Z,98178.89
2023-01-17T21:41:47.137Z,98181.67
2023-01-17T21:44:19.020Z,98185.84
2023-01-17T21:46:48.793Z,98188.12
2023-01-17T21:49:17.179Z,98199.65
2023-01-17T21:52:03.785Z,98212.66
2023-01-17T21:54:50.268Z,98218.77
2023-01-17T21:57:38.599Z,98221.80
2023-01-17T22:00:11.276Z,98216.02
2023-01-17T22:02:44.543Z,98219.59
2023-01-17T22:05:14.149Z,98220.88
2023-01-17T22:08:04.474Z,98234.12
2023-01-17T22:10:43.726Z,98234.58
2023-01-17T22:13:13.993Z,98225.18
2023-01-17T22:15:43.130Z,98217.15
2023-01-17T22:18:12.372Z,98213.54
2023-01-17T22:20:41.049Z,98209.85
2023-01-17T22:23:11.097Z,98207.45
2023-01-17T22:25:39.420Z,98206.23
2023-01-17T22:28:08.541Z,98201.14
2023-01-17T22:30:36.996Z,98189.13
2023-01-17T22:33:05.514Z,98176.77
2023-01-17T22:35:33.989Z,98171.40
2023-01-17T22:38:02.473Z,98163.81
2023-01-17T22:40:32.081Z,98158.67
2023-01-17T22:43:00.461Z,98152.60
2023-01-17T22:45:29.009Z,98137.38
2023-01-17T22:47:57.311Z,98124.87
2023-01-17T22:50:25.639Z,98136.06
2023-01-17T22:52:54.082Z,98137.39
2023-01-17T22:55:22.392Z,98140.83
2023-01-17T22:57:50.875Z,98147.80
2023-01-17T23:00:20.626Z,98159.96
2023-01-17T23:02:48.885Z,98162.52
2023-01-17T23:05:17.739Z,98166.09
2023-01-17T23:07:49.758Z,98167.23
2023-01-17T23:10:33.074Z,98158.71
2023-01-17T23:13:02.297Z,98149.40
2023-01-17T23:15:48.215Z,98151.05
2023-01-17T23:18:34.682Z,98143.48
2023-01-17T23:21:03.088Z,98143.22
2023-01-17T23:23:32.870Z,98143.17
2023-01-17T23:26:01.531Z,98141.98
2023-01-17T23:28:29.864Z,98144.94
2023-01-17T23:31:02.805Z,98151.48
2023-01-17T23:33:31.168Z,98144.97
2023-01-17T23:35:59.389Z,98139.61
2023-01-17T23:38:32.937Z,98139.90
2023-01-17T23:41:21.872Z,98133.91
2023-01-17T23:43:55.112Z,98122.75
2023-01-17T23:46:25.494Z,98117.20
2023-01-17T23:48:54.357Z,98128.93
2023-01-17T23:51:22.835Z,98132.54
2023-01-17T23:53:56.526Z,98128.58
2023-01-17T23:56:25.095Z,98126.27
2023-01-17T23:58:54.100Z,98135.89
